createdAt,value
2023-01-05T00:01:42.058Z,93.80
2023-01-05T00:04:11.918Z,93.70
2023-01-05T00:06:39.803Z,93.70
2023-01-05T00:09:15.318Z,93.70
2023-01-05T00:12:01.914Z,93.80
2023-01-05T00:14:50.292Z,93.80
2023-01-05T00:17:42.569Z,93.80
2023-01-05T00:20:39.013Z,93.80
2023-01-05T00:23:09.767Z,93.90
2023-01-05T00:25:40.274Z,93.80
2023-01-05T00:28:07.783Z,93.80
2023-01-05T00:30:46.845Z,93.90
2023-01-05T00:33:16.977Z,93.80
2023-01-05T00:35:44.420Z,93.90
2023-01-05T00:38:11.788Z,93.80
2023-01-05T00:40:39.144Z,93.90
2023-01-05T00:43:06.820Z,93.90
2023-01-05T00:45:33.814Z,94.10
2023-01-05T00:48:01.110Z,94.10
2023-01-05T00:50:28.274Z,94.20
2023-01-05T00:52:55.468Z,94.30
2023-01-05T00:55:22.462Z,94.30
2023-01-05T00:57:49.435Z,94.30
2023-01-05T01:00:19.551Z,94.30
2023-01-05T01:02:47.066Z,94.30
2023-01-05T01:05:14.476Z,94.20
2023-01-05T01:07:42.177Z,94.20
2023-01-05T01:10:10.991Z,94.20
2023-01-05T01:12:38.538Z,94.20
2023-01-05T01:15:07.422Z,94.20
2023-01-05T01:17:35.484Z,94.10
2023-01-05T01:20:02.539Z,94.00
2023-01-05T01:22:29.792Z,94.10
2023-01-05T01:24:56.674Z,94.10
2023-01-05T01:27:23.895Z,94.20
2023-01-05T01:29:50.775Z,94.20
2023-01-05T01:32:17.993Z,94.20
2023-01-05T01:34:45.660Z,94.20
2023-01-05T01:37:13.123Z,94.00
2023-01-05T01:39:45.408Z,94.00
2023-01-05T01:42:16.243Z,93.90
2023-01-05T01:44:48.096Z,93.90
2023-01-05T01:47:33.536Z,94.00
2023-01-05T01:50:09.353Z,93.90
2023-01-05T01:52:37.486Z,93.80
2023-01-05T01:55:06.915Z,93.80
2023-01-05T01:57:35.142Z,93.80
2023-01-05T02:00:06.957Z,94.00
2023-01-05T02:02:46.847Z,93.70
2023-01-05T02:05:18.175Z,93.80
2023-01-05T02:07:48.170Z,93.80
2023-01-05T02:10:29.957Z,93.90
2023-01-05T02:13:08.840Z,94.00
2023-01-05T02:16:21.391Z,94.00
2023-01-05T02:19:02.718Z,94.10
2023-01-05T02:22:06.986Z,94.10
2023-01-05T02:25:32.484Z,94.10
2023-01-05T02:28:55.232Z,94.10
2023-01-05T02:31:28.936Z,94.00
2023-01-05T02:34:03.258Z,94.00
2023-01-05T02:36:54.300Z,93.80
2023-01-05T02:40:03.724Z,93.70
2023-01-05T02:42:36.779Z,93.80
2023-01-05T02:45:09.290Z,93.70
2023-01-05T02:47:42.288Z,93.70
2023-01-05T02:50:20.754Z,93.70
2023-01-05T02:52:54.422Z,94.10
2023-01-05T02:55:42.520Z,93.90
2023-01-05T02:58:37.913Z,93.80
2023-01-05T03:01:20.774Z,93.90
2023-01-05T03:03:55.260Z,93.90
2023-01-05T03:06:32.986Z,94.00
2023-01-05T03:09:03.688Z,94.00
2023-01-05T03:12:22.338Z,94.00
2023-01-05T03:14:59.436Z,93.90
2023-01-05T03:17:44.299Z,93.80
2023-01-05T03:20:16.659Z,93.60
2023-01-05T03:23:03.915Z,93.60
2023-01-05T03:25:53.373Z,93.50
2023-01-05T03:28:48.489Z,93.50
2023-01-05T03:32:02.413Z,93.60
2023-01-05T03:35:12.447Z,93.60
2023-01-05T03:37:49.266Z,93.50
2023-01-05T03:40:22.196Z,93.40
2023-01-05T03:42:52.653Z,93.50
2023-01-05T03:45:22.476Z,93.40
2023-01-05T03:47:50.318Z,93.50
2023-01-05T03:50:22.214Z,93.40
2023-01-05T03:52:49.212Z,93.40
2023-01-05T03:55:16.172Z,93.40
2023-01-05T03:57:43.728Z,93.50
2023-01-05T04:00:11.848Z,93.60
2023-01-05T04:02:55.543Z,93.70
2023-01-05T04:05:22.926Z,93.60
2023-01-05T04:07:50.820Z,93.60
2023-01-05T04:10:17.755Z,93.60
2023-01-05T04:12:46.304Z,93.70
2023-01-05T04:15:14.793Z,93.70
2023-01-05T04:17:42.053Z,93.70
2023-01-05T04:20:12.281Z,93.70
2023-01-05T04:22:39.660Z,93.60
2023-01-05T04:25:08.919Z,93.50
2023-01-05T04:27:35.956Z,93.60
2023-01-05T04:30:06.717Z,93.70
2023-01-05T04:32:34.359Z,93.60
2023-01-05T04:35:07.061Z,93.70
2023-01-05T04:37:39.928Z,93.80
2023-01-05T04:40:08.610Z,93.80
2023-01-05T04:42:43.474Z,93.80
2023-01-05T04:45:11.038Z,93.80
2023-01-05T04:47:38.616Z,93.70
2023-01-05T04:50:06.834Z,93.90
2023-01-05T04:52:33.940Z,93.80
2023-01-05T04:55:02.153Z,93.80
2023-01-05T04:57:29.825Z,93.80
2023-01-05T04:59:57.870Z,94.00
2023-01-05T05:02:25.554Z,94.00
2023-01-05T05:04:52.826Z,94.00
2023-01-05T05:07:21.516Z,94.00
2023-01-05T05:09:48.681Z,94.10
2023-01-05T05:12:20.521Z,94.00
2023-01-05T05:14:50.811Z,94.00
2023-01-05T05:17:18.482Z,94.00
2023-01-05T05:19:45.361Z,94.00
2023-01-05T05:22:13.178Z,94.00
2023-01-05T05:24:40.181Z,94.10
2023-01-05T05:27:08.915Z,94.10
2023-01-05T05:29:35.739Z,94.10
2023-01-05T05:32:04.035Z,94.20
2023-01-05T05:34:30.890Z,94.20
2023-01-05T05:36:57.922Z,94.30
2023-01-05T05:39:25.057Z,94.20
2023-01-05T05:41:51.971Z,94.20
2023-01-05T05:44:19.271Z,94.20
2023-01-05T05:46:46.416Z,94.20
2023-01-05T05:49:13.788Z,94.20
2023-01-05T05:51:40.733Z,94.20
2023-01-05T05:54:07.888Z,94.30
2023-01-05T05:56:34.765Z,94.20
2023-01-05T05:59:02.052Z,94.30
2023-01-05T06:01:29.816Z,94.30
2023-01-05T06:03:57.109Z,94.30
2023-01-05T06:06:24.015Z,94.30
2023-01-05T06:08:51.407Z,94.20
2023-01-05T06:11:18.393Z,94.20
2023-01-05T06:13:48.705Z,94.20
2023-01-05T06:16:15.870Z,94.30
2023-01-05T06:18:42.859Z,94.40
2023-01-05T06:21:09.717Z,94.40
2023-01-05T06:23:36.734Z,94.40
2023-01-05T06:26:03.861Z,94.30
2023-01-05T06:28:30.927Z,94.30
2023-01-05T06:30:57.832Z,94.20
2023-01-05T06:33:25.139Z,94.20
2023-01-05T06:35:52.388Z,94.20
2023-01-05T06:38:19.314Z,94.20
2023-01-05T06:40:49.197Z,94.10
2023-01-05T06:43:16.352Z,94.00
2023-01-05T06:45:44.303Z,93.90
2023-01-05T06:48:11.296Z,93.80
2023-01-05T06:50:38.292Z,93.80
2023-01-05T06:53:05.414Z,93.80
2023-01-05T06:55:32.332Z,94.00
2023-01-05T06:58:01.276Z,94.00
2023-01-05T07:00:29.472Z,94.10
2023-01-05T07:02:56.700Z,94.30
2023-01-05T07:05:24.435Z,94.30
2023-01-05T07:07:51.851Z,94.20
2023-01-05T07:10:18.902Z,94.30
2023-01-05T07:12:45.978Z,94.40
2023-01-05T07:15:12.953Z,94.30
2023-01-05T07:17:39.881Z,94.70
2023-01-05T07:20:07.939Z,94.40
2023-01-05T07:22:35.533Z,94.40
2023-01-05T07:25:02.759Z,94.40
2023-01-05T07:27:29.699Z,94.50
2023-01-05T07:29:56.679Z,94.40
2023-01-05T07:32:23.621Z,94.30
2023-01-05T07:34:55.702Z,94.40
2023-01-05T07:37:27.456Z,94.30
2023-01-05T07:39:54.499Z,94.30
2023-01-05T07:42:21.410Z,94.40
2023-01-05T07:44:50.464Z,94.40
2023-01-05T07:47:17.292Z,94.30
2023-01-05T07:49:44.550Z,94.20
2023-01-05T07:52:11.575Z,94.20
2023-01-05T07:54:38.504Z,94.20
2023-01-05T07:57:05.855Z,94.10
2023-01-05T07:59:32.753Z,94.10
2023-01-05T08:02:00.074Z,94.10
2023-01-05T08:04:27.206Z,94.10
2023-01-05T08:06:54.256Z,94.10
2023-01-05T08:09:39.747Z,94.10
2023-01-05T08:12:07.092Z,94.10
2023-01-05T08:14:34.188Z,94.00
2023-01-05T08:17:01.216Z,94.10
2023-01-05T08:19:28.175Z,94.50
2023-01-05T08:21:55.136Z,94.20
2023-01-05T08:24:22.197Z,94.30
2023-01-05T08:26:51.054Z,94.30
2023-01-05T08:29:18.360Z,94.30
2023-01-05T08:31:45.461Z,94.30
2023-01-05T08:34:12.931Z,94.30
2023-01-05T08:36:40.318Z,94.30
2023-01-05T08:39:07.362Z,94.40
2023-01-05T08:41:37.906Z,94.50
2023-01-05T08:44:13.548Z,94.70
2023-01-05T08:46:41.623Z,94.70
2023-01-05T08:49:09.992Z,95.00
2023-01-05T08:51:37.856Z,94.80
2023-01-05T08:54:05.012Z,94.80
2023-01-05T08:56:38.305Z,94.90
2023-01-05T08:59:05.933Z,94.90
2023-01-05T09:01:33.130Z,94.80
2023-01-05T09:04:00.608Z,94.70
2023-01-05T09:06:27.645Z,94.70
2023-01-05T09:08:54.886Z,94.60
2023-01-05T09:11:24.160Z,94.60
2023-01-05T09:14:02.292Z,94.50
2023-01-05T09:17:06.371Z,94.40
2023-01-05T09:19:22.595Z,94.40
2023-01-05T09:21:49.516Z,94.50
2023-01-05T09:24:16.682Z,94.50
2023-01-05T09:26:44.277Z,94.50
2023-01-05T09:29:12.492Z,94.80
2023-01-05T09:31:41.506Z,94.60
2023-01-05T09:34:08.966Z,94.60
2023-01-05T09:36:38.981Z,94.60
2023-01-05T09:39:06.662Z,94.70
2023-01-05T09:41:51.006Z,94.70
2023-01-05T09:44:37.714Z,94.60
2023-01-05T09:47:27.957Z,94.60
2023-01-05T09:49:57.352Z,94.60
2023-01-05T09:52:25.047Z,94.60
2023-01-05T09:54:52.250Z,94.70
2023-01-05T09:57:29.894Z,94.90
2023-01-05T10:00:06.093Z,94.90
2023-01-05T10:02:38.263Z,94.80
2023-01-05T10:05:06.861Z,94.70
2023-01-05T10:07:51.788Z,94.60
2023-01-05T10:10:41.354Z,94.40
2023-01-05T10:13:19.501Z,94.30
2023-01-05T10:15:51.299Z,94.30
2023-01-05T10:18:24.575Z,94.20
2023-01-05T10:20:57.613Z,94.10
2023-01-05T10:23:58.216Z,94.10
2023-01-05T10:27:22.608Z,94.00
2023-01-05T10:29:44.491Z,93.80
2023-01-05T10:32:25.948Z,93.90
2023-01-05T10:34:55.905Z,93.90
2023-01-05T10:38:31.548Z,94.00
2023-01-05T10:41:16.937Z,94.00
2023-01-05T10:43:55.579Z,93.70
2023-01-05T10:46:42.702Z,93.80
2023-01-05T10:49:27.902Z,93.70
2023-01-05T10:51:59.269Z,93.60
2023-01-05T10:55:10.492Z,94.00
2023-01-05T10:57:40.589Z,94.20
2023-01-05T11:00:15.430Z,94.50
2023-01-05T11:02:50.697Z,94.40
2023-01-05T11:05:25.864Z,93.70
2023-01-05T11:07:58.790Z,93.90
2023-01-05T11:10:36.631Z,93.10
2023-01-05T11:13:17.458Z,92.30
2023-01-05T11:15:55.236Z,91.90
2023-01-05T11:18:48.857Z,91.10
2023-01-05T11:21:43.256Z,90.40
2023-01-05T11:24:29.461Z,90.00
2023-01-05T11:27:03.216Z,89.10
2023-01-05T11:29:31.068Z,88.90
2023-01-05T11:32:06.539Z,88.10
2023-01-05T11:34:46.073Z,87.00
2023-01-05T11:37:12.887Z,86.30
2023-01-05T11:39:55.863Z,86.60
2023-01-05T11:42:26.689Z,85.50
2023-01-05T11:45:10.746Z,84.80
2023-01-05T11:47:43.943Z,83.50
2023-01-05T11:50:15.630Z,84.50
2023-01-05T11:52:50.200Z,82.70
2023-01-05T11:55:30.929Z,82.80
2023-01-05T11:58:13.659Z,82.50
2023-01-05T12:01:02.342Z,81.30
2023-01-05T12:04:04.240Z,81.30
2023-01-05T12:07:30.411Z,81.00
2023-01-05T12:10:12.708Z,82.10
2023-01-05T12:13:10.266Z,83.30
2023-01-05T12:15:43.618Z,83.00
2023-01-05T12:19:26.876Z,82.80
2023-01-05T12:22:21.002Z,80.00
2023-01-05T12:25:11.830Z,78.30
2023-01-05T12:27:50.581Z,77.90
2023-01-05T12:34:04.973Z,75.40
2023-01-05T12:37:02.476Z,73.20
2023-01-05T12:39:54.104Z,70.70
2023-01-05T12:42:49.478Z,71.50
2023-01-05T12:45:38.404Z,70.40
2023-01-05T12:48:20.953Z,69.60
2023-01-05T12:51:05.640Z,69.60
2023-01-05T12:53:44.857Z,70.40
2023-01-05T12:56:18.943Z,71.60
2023-01-05T12:59:16.651Z,70.30
2023-01-05T13:01:58.928Z,69.00
2023-01-05T13:04:48.635Z,70.40
2023-01-05T13:07:56.908Z,70.00
2023-01-05T13:10:47.757Z,67.90
2023-01-05T13:14:00.568Z,67.70
2023-01-05T13:16:42.013Z,66.60
2023-01-05T13:19:28.968Z,67.00
2023-01-05T13:21:58.657Z,66.80
2023-01-05T13:24:36.113Z,67.50
2023-01-05T13:27:04.230Z,67.30
2023-01-05T13:29:37.040Z,67.00
2023-01-05T13:32:27.546Z,66.70
2023-01-05T13:35:30.901Z,65.40
2023-01-05T13:38:23.843Z,65.20
2023-01-05T13:41:17.810Z,65.60
2023-01-05T13:44:18.343Z,65.40
2023-01-05T13:47:15.536Z,64.90
2023-01-05T13:50:07.867Z,64.30
2023-01-05T13:52:57.887Z,64.80
2023-01-05T13:55:26.833Z,64.00
2023-01-05T13:57:55.662Z,63.50
2023-01-05T14:00:39.228Z,63.60
2023-01-05T14:03:22.553Z,63.20
2023-01-05T14:05:56.936Z,64.30
2023-01-05T14:08:35.608Z,63.90
2023-01-05T14:11:17.646Z,64.40
2023-01-05T14:13:54.768Z,64.40
2023-01-05T14:16:39.385Z,64.80
2023-01-05T14:19:21.110Z,64.90
2023-01-05T14:21:51.289Z,65.20
2023-01-05T14:24:47.477Z,65.70
2023-01-05T14:27:19.189Z,65.50
2023-01-05T14:29:46.167Z,66.10
2023-01-05T14:32:36.900Z,66.30
2023-01-05T14:35:30.714Z,66.30
2023-01-05T14:38:01.950Z,66.70
2023-01-05T14:40:35.540Z,67.10
2023-01-05T14:43:29.522Z,67.20
2023-01-05T14:46:14.898Z,67.40
2023-01-05T14:49:00.381Z,67.60
2023-01-05T14:51:30.101Z,67.90
2023-01-05T14:54:03.098Z,67.90
2023-01-05T14:56:35.149Z,68.30
2023-01-05T14:59:19.730Z,68.70
2023-01-05T15:04:44.058Z,69.00
2023-01-05T15:07:29.875Z,69.10
2023-01-05T15:10:32.458Z,69.40
2023-01-05T15:13:31.365Z,69.50
2023-01-05T15:16:46.640Z,69.50
2023-01-05T15:19:53.609Z,69.70
2023-01-05T15:22:39.244Z,69.60
2023-01-05T15:25:43.344Z,70.10
2023-01-05T15:28:24.998Z,70.00
2023-01-05T15:31:23.458Z,70.30
2023-01-05T15:34:23.570Z,69.90
2023-01-05T15:37:01.217Z,70.00
2023-01-05T15:39:56.508Z,70.20
2023-01-05T15:42:32.681Z,70.20
2023-01-05T15:44:59.868Z,70.10
2023-01-05T15:47:29.796Z,70.00
2023-01-05T15:50:00.075Z,70.00
2023-01-05T15:52:39.042Z,70.00
2023-01-05T15:55:19.056Z,69.80
2023-01-05T15:57:59.999Z,69.40
2023-01-05T16:00:34.244Z,69.60
2023-01-05T16:03:02.706Z,69.50
2023-01-05T16:05:35.592Z,69.40
2023-01-05T16:08:14.647Z,69.40
2023-01-05T16:11:00.980Z,69.50
2023-01-05T16:13:33.323Z,69.60
2023-01-05T16:16:05.919Z,69.80
2023-01-05T16:18:40.492Z,69.80
2023-01-05T16:21:22.479Z,69.90
2023-01-05T16:23:57.205Z,69.80
2023-01-05T16:26:24.984Z,69.90
2023-01-05T16:28:51.887Z,70.00
2023-01-05T16:31:40.381Z,70.10
2023-01-05T16:34:18.722Z,70.00
2023-01-05T16:37:10.303Z,69.90
2023-01-05T16:39:40.335Z,70.00
2023-01-05T16:42:40.430Z,70.20
2023-01-05T16:45:32.090Z,70.10
2023-01-05T16:47:59.741Z,70.20
2023-01-05T16:50:29.634Z,70.40
2023-01-05T16:53:05.103Z,70.50
2023-01-05T16:55:37.648Z,70.50
2023-01-05T16:58:30.537Z,70.60
2023-01-05T17:01:10.306Z,70.70
2023-01-05T17:03:37.557Z,70.80
2023-01-05T17:06:05.996Z,70.90
2023-01-05T17:08:37.790Z,71.00
2023-01-05T17:11:11.997Z,70.90
2023-01-05T17:13:47.018Z,71.00
2023-01-05T17:16:14.930Z,70.90
2023-01-05T17:18:42.108Z,71.10
2023-01-05T17:21:16.518Z,71.10
2023-01-05T17:23:48.809Z,71.10
2023-01-05T17:26:28.493Z,71.10
2023-01-05T17:28:59.609Z,71.20
2023-01-05T17:31:27.123Z,71.00
2023-01-05T17:33:54.062Z,71.10
2023-01-05T17:36:27.524Z,71.00
2023-01-05T17:38:54.512Z,71.10
2023-01-05T17:41:21.833Z,71.20
2023-01-05T17:43:49.002Z,71.10
2023-01-05T17:46:20.279Z,71.10
2023-01-05T17:48:48.459Z,71.20
2023-01-05T17:51:15.738Z,71.30
2023-01-05T17:53:42.620Z,71.70
2023-01-05T17:56:09.757Z,71.60
2023-01-05T17:58:36.677Z,71.60
2023-01-05T18:01:06.685Z,71.70
2023-01-05T18:03:33.771Z,71.50
2023-01-05T18:06:02.111Z,71.60
2023-01-05T18:08:29.557Z,71.50
2023-01-05T18:10:56.507Z,71.50
2023-01-05T18:13:24.494Z,71.50
2023-01-05T18:15:53.035Z,71.50
2023-01-05T18:18:21.474Z,71.60
2023-01-05T18:20:51.537Z,71.70
2023-01-05T18:23:24.400Z,71.60
2023-01-05T18:25:51.499Z,71.60
2023-01-05T18:28:18.679Z,71.70
2023-01-05T18:30:45.933Z,71.70
2023-01-05T18:35:45.684Z,71.70
2023-01-05T18:38:12.634Z,71.60
2023-01-05T18:40:39.699Z,71.50
2023-01-05T18:43:06.935Z,71.50
2023-01-05T18:45:40.658Z,71.50
2023-01-05T18:48:08.342Z,71.40
2023-01-05T18:50:42.554Z,71.40
2023-01-05T18:53:09.815Z,71.30
2023-01-05T18:55:41.551Z,71.40
2023-01-05T18:58:10.497Z,71.30
2023-01-05T19:00:42.850Z,71.30
2023-01-05T19:03:10.932Z,71.20
2023-01-05T19:05:40.839Z,71.00
2023-01-05T19:08:09.663Z,71.00
2023-01-05T19:10:37.649Z,71.00
2023-01-05T19:13:05.108Z,71.00
2023-01-05T19:15:38.424Z,71.00
2023-01-05T19:18:06.484Z,71.00
2023-01-05T19:20:33.357Z,71.00
2023-01-05T19:23:01.295Z,71.00
2023-01-05T19:25:29.558Z,71.00
2023-01-05T19:27:56.660Z,71.20
2023-01-05T19:30:25.849Z,71.20
2023-01-05T19:32:53.120Z,71.10
2023-01-05T19:35:20.671Z,71.00
2023-01-05T19:37:47.868Z,70.90
2023-01-05T19:40:14.973Z,70.80
2023-01-05T19:42:43.321Z,70.60
2023-01-05T19:45:10.854Z,70.40
2023-01-05T19:47:40.744Z,70.30
2023-01-05T19:50:10.564Z,70.10
2023-01-05T19:52:39.129Z,70.00
2023-01-05T19:55:06.951Z,69.90
2023-01-05T19:57:33.985Z,69.90
2023-01-05T20:00:00.886Z,69.90
2023-01-05T20:02:27.925Z,69.70
2023-01-05T20:04:55.382Z,69.50
2023-01-05T20:07:22.609Z,69.50
2023-01-05T20:09:51.299Z,69.40
2023-01-05T20:12:18.517Z,69.30
2023-01-05T20:14:45.433Z,69.30
2023-01-05T20:17:13.237Z,69.20
2023-01-05T20:19:40.726Z,68.90
2023-01-05T20:22:14.247Z,69.00
2023-01-05T20:24:42.425Z,68.80
2023-01-05T20:27:13.754Z,68.70
2023-01-05T20:29:41.094Z,68.70
2023-01-05T20:32:27.888Z,68.70
2023-01-05T20:35:00.496Z,68.80
2023-01-05T20:37:30.777Z,69.00
2023-01-05T20:40:10.659Z,69.10
2023-01-05T20:42:37.633Z,69.30
2023-01-05T20:45:05.696Z,69.50
2023-01-05T20:47:43.088Z,69.60
2023-01-05T20:50:13.875Z,69.80
2023-01-05T20:52:40.785Z,70.00
2023-01-05T20:55:07.785Z,70.30
2023-01-05T20:57:34.825Z,70.50
2023-01-05T21:00:01.979Z,70.70
2023-01-05T21:02:29.193Z,70.70
2023-01-05T21:04:56.111Z,70.90
2023-01-05T21:07:23.214Z,71.10
2023-01-05T21:09:51.861Z,71.40
2023-01-05T21:12:20.806Z,71.60
2023-01-05T21:14:47.721Z,71.80
2023-01-05T21:17:14.867Z,71.90
2023-01-05T21:19:41.800Z,71.80
2023-01-05T21:22:08.985Z,71.80
2023-01-05T21:24:36.697Z,71.90
2023-01-05T21:27:03.854Z,72.00
2023-01-05T21:29:30.942Z,72.00
2023-01-05T21:31:57.990Z,72.10
2023-01-05T21:34:25.301Z,72.30
2023-01-05T21:36:52.795Z,72.30
2023-01-05T21:39:24.480Z,72.10
2023-01-05T21:42:11.846Z,72.00
2023-01-05T21:44:39.708Z,71.90
2023-01-05T21:47:07.752Z,71.80
2023-01-05T21:49:35.811Z,71.80
2023-01-05T21:52:22.258Z,72.00
2023-01-05T21:55:07.741Z,72.10
2023-01-05T21:57:35.016Z,72.30
2023-01-05T22:00:02.160Z,72.50
2023-01-05T22:02:31.930Z,72.70
2023-01-05T22:04:59.033Z,72.80
2023-01-05T22:07:25.872Z,73.10
2023-01-05T22:09:52.810Z,73.30
2023-01-05T22:12:20.166Z,73.50
2023-01-05T22:14:47.031Z,73.60
2023-01-05T22:17:13.998Z,73.80
2023-01-05T22:19:41.069Z,73.80
2023-01-05T22:22:08.011Z,73.80
2023-01-05T22:24:35.184Z,73.80
2023-01-05T22:27:02.181Z,73.70
2023-01-05T22:29:29.365Z,73.80
2023-01-05T22:31:57.902Z,73.70
2023-01-05T22:34:25.455Z,73.60
2023-01-05T22:36:53.244Z,73.60
2023-01-05T22:39:20.289Z,73.40
2023-01-05T22:41:49.883Z,73.30
2023-01-05T22:44:17.119Z,73.20
2023-01-05T22:46:43.989Z,73.10
2023-01-05T22:49:16.362Z,72.90
2023-01-05T22:51:44.650Z,72.90
2023-01-05T22:54:12.619Z,72.80
2023-01-05T22:56:40.208Z,72.80
2023-01-05T22:59:07.401Z,72.80
2023-01-05T23:01:43.604Z,72.90
2023-01-05T23:04:12.045Z,73.10
2023-01-05T23:06:39.576Z,73.20
2023-01-05T23:09:11.348Z,73.20
2023-01-05T23:11:40.579Z,73.50
2023-01-05T23:14:11.194Z,73.50
2023-01-05T23:16:38.699Z,73.80
2023-01-05T23:19:07.701Z,73.80
2023-01-05T23:21:35.324Z,74.10
2023-01-05T23:24:03.029Z,74.30
2023-01-05T23:26:30.868Z,74.60
2023-01-05T23:28:58.856Z,74.90
2023-01-05T23:31:26.681Z,75.00
2023-01-05T23:33:54.002Z,75.20
2023-01-05T23:36:23.891Z,75.30
2023-01-05T23:38:51.345Z,75.40
2023-01-05T23:41:19.098Z,75.50
2023-01-05T23:43:46.537Z,75.60
2023-01-05T23:46:22.274Z,75.70
2023-01-05T23:48:50.981Z,76.00
2023-01-05T23:51:18.743Z,76.20
2023-01-05T23:53:52.182Z,76.30
2023-01-05T23:56:22.716Z,76.60
2023-01-05T23:59:05.367Z,76.80
